Time;durP1;ratioP1;P1;durP2;ratioP2;P2;SDS_P1;SDS_P2;PMS_P1;PMS_P2;Temp;Humidity;BMP_temperature;BMP_pressure;BME280_temperature;BME280_humidity;BME280_pressure;Samples;Min_cycle;Max_cycle;Signal;HPM_P1;HPM_P2
2023/12/22 00:02:18;;;;;;;2.40;2.20;;;6.70;99.90;;;;;;5052161;28;20166;-68
2023/12/22 00:04:44;;;;;;;3.47;1.77;;;6.80;99.90;;;;;;5052003;28;20235;-68
2023/12/22 00:07:09;;;;;;;6.23;1.97;;;6.90;99.90;;;;;;5051698;28;20284;-68
2023/12/22 00:09:35;;;;;;;6.93;2.60;;;6.90;99.90;;;;;;5051942;28;20178;-68
2023/12/22 00:12:00;;;;;;;4.47;1.93;;;7.00;99.90;;;;;;5051962;28;20162;-67
2023/12/22 00:14:26;;;;;;;4.00;2.03;;;7.00;99.90;;;;;;5051831;28;20165;-69
2023/12/22 00:16:51;;;;;;;7.60;3.00;;;7.10;99.90;;;;;;5052106;28;20173;-68
2023/12/22 00:19:17;;;;;;;6.17;2.17;;;7.10;99.90;;;;;;5033937;28;20260;-68
2023/12/22 00:21:42;;;;;;;5.37;3.30;;;7.10;99.90;;;;;;5051789;28;20174;-68
2023/12/22 00:24:07;;;;;;;6.43;2.50;;;7.20;99.90;;;;;;5051816;28;20170;-68
2023/12/22 00:26:33;;;;;;;10.33;2.70;;;7.30;99.90;;;;;;5051449;28;20253;-68
2023/12/22 00:28:59;;;;;;;2.60;2.07;;;7.30;99.90;;;;;;5051831;28;20173;-68
2023/12/22 00:31:24;;;;;;;4.73;2.00;;;7.30;99.90;;;;;;5051777;28;20215;-68
2023/12/22 00:33:50;;;;;;;5.63;1.60;;;7.30;99.90;;;;;;5051679;28;20197;-68
2023/12/22 00:36:17;;;;;;;5.60;1.83;;;7.30;99.90;;;;;;5051739;28;20272;-68
2023/12/22 00:38:43;;;;;;;5.77;2.17;;;7.30;99.90;;;;;;5051494;28;20788;-68
2023/12/22 00:41:10;;;;;;;4.20;1.67;;;7.30;99.90;;;;;;5051742;28;20420;-68
2023/12/22 00:43:35;;;;;;;3.80;1.50;;;7.20;99.90;;;;;;5051904;28;20252;-68
2023/12/22 00:46:01;;;;;;;10.93;1.90;;;7.20;99.90;;;;;;5051477;28;20562;-68
2023/12/22 00:48:27;;;;;;;4.37;2.00;;;7.30;99.90;;;;;;5051354;28;20170;-68
2023/12/22 00:50:52;;;;;;;2.70;1.80;;;7.30;99.90;;;;;;5051813;28;20412;-68
2023/12/22 00:53:18;;;;;;;2.83;1.40;;;7.30;99.90;;;;;;5051613;28;20253;-68
2023/12/22 00:55:43;;;;;;;3.17;1.50;;;7.30;99.90;;;;;;5053262;28;20197;-68
2023/12/22 00:58:09;;;;;;;3.33;2.17;;;7.30;99.90;;;;;;5055229;28;20673;-68
2023/12/22 01:00:34;;;;;;;7.93;2.80;;;7.20;99.90;;;;;;5055576;28;20178;-68
2023/12/22 01:03:00;;;;;;;5.77;2.20;;;7.20;99.90;;;;;;5055366;28;20188;-68
2023/12/22 01:05:25;;;;;;;6.33;2.13;;;7.10;99.90;;;;;;5055145;28;20205;-68
2023/12/22 01:07:51;;;;;;;4.70;1.93;;;7.10;99.90;;;;;;5054909;28;20170;-68
2023/12/22 01:10:16;;;;;;;1.63;1.33;;;7.10;99.90;;;;;;5055391;28;20162;-68
2023/12/22 01:12:42;;;;;;;3.33;1.37;;;7.20;99.90;;;;;;5055233;28;20170;-68
2023/12/22 01:15:08;;;;;;;3.30;2.10;;;7.10;99.90;;;;;;5054888;28;20201;-68
2023/12/22 01:17:33;;;;;;;7.87;2.07;;;7.10;99.90;;;;;;5054969;28;20169;-68
2023/12/22 01:19:59;;;;;;;4.53;1.97;;;7.10;99.90;;;;;;5055193;28;20415;-68
2023/12/22 01:22:24;;;;;;;6.00;1.80;;;7.10;99.90;;;;;;5055020;28;20181;-68
2023/12/22 01:24:50;;;;;;;3.87;1.73;;;7.10;99.90;;;;;;5037006;28;20186;-68
2023/12/22 01:27:15;;;;;;;5.13;1.80;;;7.10;99.90;;;;;;5054769;28;20247;-68
2023/12/22 01:29:41;;;;;;;4.17;2.40;;;7.20;99.90;;;;;;5054818;28;20166;-68
2023/12/22 01:32:06;;;;;;;5.17;1.93;;;7.20;99.90;;;;;;5054788;28;20541;-68
2023/12/22 01:34:32;;;;;;;4.73;1.30;;;7.20;99.90;;;;;;5036854;28;20216;-69
2023/12/22 01:36:57;;;;;;;6.00;1.80;;;7.20;99.90;;;;;;5054473;28;20174;-68
2023/12/22 01:39:23;;;;;;;3.13;1.80;;;7.20;99.90;;;;;;5054731;28;20177;-68
2023/12/22 01:41:48;;;;;;;3.30;1.17;;;7.20;99.90;;;;;;5054650;28;20219;-68
2023/12/22 01:44:14;;;;;;;3.10;1.23;;;7.20;99.90;;;;;;5054585;28;20204;-68
2023/12/22 01:46:40;;;;;;;1.80;1.17;;;7.20;99.90;;;;;;5053999;28;20197;-68
2023/12/22 01:49:07;;;;;;;3.53;1.50;;;7.20;99.90;;;;;;5054569;28;20170;-68
2023/12/22 01:51:34;;;;;;;3.37;0.80;;;7.30;99.90;;;;;;5036568;28;20173;-68
2023/12/22 01:54:00;;;;;;;0.90;0.80;;;7.30;99.90;;;;;;5054437;28;20431;-68
2023/12/22 01:56:26;;;;;;;3.60;1.03;;;7.30;99.90;;;;;;5053959;28;20447;-68
2023/12/22 01:58:58;;;;;;;1.50;1.00;;;7.30;99.90;;;;;;5054342;28;20422;-68
2023/12/22 02:01:25;;;;;;;3.33;1.10;;;7.30;99.90;;;;;;5054239;28;20505;-68
2023/12/22 02:03:55;;;;;;;1.30;0.70;;;7.30;99.90;;;;;;5054274;28;20861;-68
2023/12/22 02:06:21;;;;;;;0.80;0.70;;;7.30;99.90;;;;;;5053128;28;20468;-68
2023/12/22 02:08:47;;;;;;;6.70;1.20;;;7.30;99.90;;;;;;5053605;28;20455;-68
2023/12/22 02:11:16;;;;;;;2.33;1.00;;;7.30;99.90;;;;;;5054049;28;20412;-68
2023/12/22 02:13:45;;;;;;;5.27;1.70;;;7.30;99.90;;;;;;5053955;28;20424;-68
2023/12/22 02:16:26;;;;;;;2.97;1.03;;;7.30;99.90;;;;;;5053773;28;20464;-68
2023/12/22 02:18:55;;;;;;;2.30;1.13;;;7.20;99.90;;;;;;5053949;28;20507;-68
2023/12/22 02:21:21;;;;;;;2.47;1.30;;;7.20;99.90;;;;;;5053828;28;20412;-68
2023/12/22 02:23:47;;;;;;;1.47;1.30;;;7.20;99.90;;;;;;5053872;28;20935;-68
2023/12/22 02:26:33;;;;;;;3.53;1.00;;;7.20;99.90;;;;;;5053524;28;20239;-69
2023/12/22 02:29:00;;;;;;;3.70;1.27;;;7.20;99.90;;;;;;5053806;28;20507;-69
2023/12/22 02:31:44;;;;;;;4.93;1.10;;;7.20;99.90;;;;;;5053637;28;20424;-69
2023/12/22 02:34:17;;;;;;;2.20;1.20;;;7.10;99.90;;;;;;5053729;28;20447;-69
2023/12/22 02:36:44;;;;;;;1.60;0.97;;;7.10;99.90;;;;;;5053185;28;20526;-69
2023/12/22 02:39:11;;;;;;;1.30;1.20;;;7.10;99.90;;;;;;5053506;28;20427;-69
2023/12/22 02:41:37;;;;;;;1.70;1.20;;;7.20;99.90;;;;;;5053443;28;20515;-69
2023/12/22 02:44:03;;;;;;;3.57;1.60;;;7.20;99.90;;;;;;5053445;28;20420;-69
2023/12/22 02:46:28;;;;;;;4.37;1.20;;;7.20;99.90;;;;;;5052961;28;20471;-69
2023/12/22 02:48:54;;;;;;;2.43;1.47;;;7.20;99.90;;;;;;5053400;28;20178;-69
2023/12/22 02:51:19;;;;;;;3.50;1.87;;;7.30;99.90;;;;;;5053241;28;20625;-69
2023/12/22 02:53:45;;;;;;;4.30;1.37;;;7.30;99.90;;;;;;5053288;28;20185;-69
2023/12/22 02:56:10;;;;;;;3.23;1.30;;;7.30;99.90;;;;;;5053103;28;20193;-69
2023/12/22 02:58:36;;;;;;;4.87;1.60;;;7.30;99.90;;;;;;5052918;28;20231;-69
2023/12/22 03:01:01;;;;;;;4.37;1.60;;;7.30;99.90;;;;;;5053142;28;20253;-69
2023/12/22 03:03:27;;;;;;;2.03;1.50;;;7.30;99.90;;;;;;5053081;28;20196;-69
2023/12/22 03:05:52;;;;;;;5.70;1.33;;;7.40;99.90;;;;;;5052858;28;20648;-69
2023/12/22 03:08:18;;;;;;;2.30;1.10;;;7.40;99.90;;;;;;5052876;28;20181;-69
2023/12/22 03:10:43;;;;;;;2.73;1.00;;;7.40;99.90;;;;;;5053154;28;20162;-69
2023/12/22 03:13:09;;;;;;;4.50;1.33;;;7.40;99.90;;;;;;5052883;28;20169;-69
2023/12/22 03:15:34;;;;;;;3.23;1.37;;;7.30;99.90;;;;;;5052703;28;20213;-69
2023/12/22 03:18:00;;;;;;;5.63;1.60;;;7.40;99.90;;;;;;5052495;28;20674;-69
2023/12/22 03:20:25;;;;;;;2.13;1.43;;;7.40;99.90;;;;;;5052641;28;20265;-69
2023/12/22 03:22:51;;;;;;;5.67;1.70;;;7.50;99.90;;;;;;5052763;28;20267;-69
2023/12/22 03:25:16;;;;;;;6.50;1.40;;;7.50;99.90;;;;;;5052531;28;20276;-69
2023/12/22 03:27:42;;;;;;;4.57;1.07;;;7.50;99.90;;;;;;5052389;28;20170;-68
2023/12/22 03:30:08;;;;;;;4.40;1.30;;;7.50;99.90;;;;;;5052626;28;20215;-68
2023/12/22 03:32:33;;;;;;;1.77;1.27;;;7.50;99.90;;;;;;5052467;28;20189;-68
2023/12/22 03:34:59;;;;;;;1.87;1.00;;;7.50;99.90;;;;;;5052389;28;20483;-68
2023/12/22 03:37:24;;;;;;;1.80;1.30;;;7.50;99.90;;;;;;5052108;28;20331;-69
2023/12/22 03:39:50;;;;;;;1.43;1.00;;;7.50;99.90;;;;;;5052521;28;20165;-68
2023/12/22 03:42:15;;;;;;;2.50;0.93;;;7.50;99.90;;;;;;5052420;28;20169;-68
2023/12/22 03:44:41;;;;;;;2.30;1.60;;;7.50;99.90;;;;;;5052455;28;20166;-68
2023/12/22 03:47:07;;;;;;;3.10;1.20;;;7.50;99.90;;;;;;5051941;28;20201;-68
2023/12/22 03:49:32;;;;;;;2.20;1.13;;;7.60;99.90;;;;;;5052416;28;20166;-68
2023/12/22 03:51:58;;;;;;;1.70;1.20;;;7.60;99.90;;;;;;5052045;28;20431;-68
2023/12/22 03:54:23;;;;;;;1.67;1.00;;;7.60;99.90;;;;;;5052124;28;20181;-68
2023/12/22 03:56:49;;;;;;;2.63;1.30;;;7.60;99.90;;;;;;5051882;28;20178;-68
2023/12/22 03:59:18;;;;;;;2.43;1.20;;;7.50;99.90;;;;;;5052165;28;20189;-68
2023/12/22 04:01:43;;;;;;;5.20;1.73;;;7.50;99.90;;;;;;5052070;28;20220;-68
2023/12/22 04:04:09;;;;;;;2.47;1.03;;;7.30;99.90;;;;;;5051883;28;20435;-68
2023/12/22 04:06:39;;;;;;;1.77;1.53;;;7.20;99.90;;;;;;5051554;28;20213;-68
2023/12/22 04:09:04;;;;;;;7.30;1.67;;;7.20;99.90;;;;;;5051955;28;20681;-68
2023/12/22 04:11:30;;;;;;;3.37;1.73;;;7.10;99.90;;;;;;5051959;28;20432;-68
2023/12/22 04:13:55;;;;;;;3.07;1.63;;;7.00;99.90;;;;;;5051991;28;20178;-68
2023/12/22 04:16:21;;;;;;;3.50;2.00;;;6.90;99.90;;;;;;5051760;28;20682;-68
2023/12/22 04:18:46;;;;;;;2.90;1.87;;;6.80;99.90;;;;;;5051656;28;20177;-68
2023/12/22 04:21:12;;;;;;;4.33;1.60;;;6.80;99.90;;;;;;5051879;28;20561;-68
2023/12/22 04:23:37;;;;;;;2.57;1.33;;;6.70;99.90;;;;;;5051873;28;20265;-68
2023/12/22 04:26:03;;;;;;;8.70;2.30;;;6.70;99.90;;;;;;5051617;28;20197;-68
2023/12/22 04:28:28;;;;;;;4.40;1.60;;;6.70;99.90;;;;;;5051513;28;20177;-68
2023/12/22 04:30:54;;;;;;;5.77;1.90;;;6.60;99.90;;;;;;5053954;28;20185;-68
2023/12/22 04:33:19;;;;;;;7.53;1.50;;;6.60;99.90;;;;;;5055830;28;20180;-68
2023/12/22 04:35:45;;;;;;;7.30;2.23;;;6.60;99.90;;;;;;5055763;28;20237;-68
2023/12/22 04:38:10;;;;;;;3.07;1.50;;;6.60;99.90;;;;;;5055572;28;20184;-68
2023/12/22 04:40:36;;;;;;;5.70;1.70;;;6.60;99.90;;;;;;5055902;28;20644;-68
2023/12/22 04:43:01;;;;;;;2.87;1.43;;;6.60;99.90;;;;;;5055821;28;20200;-68
2023/12/22 04:45:27;;;;;;;4.40;2.10;;;6.60;99.90;;;;;;5037653;28;20236;-68
2023/12/22 04:47:52;;;;;;;6.80;1.30;;;6.70;99.90;;;;;;5055417;28;20205;-68
2023/12/22 04:50:18;;;;;;;4.60;1.37;;;6.60;99.90;;;;;;5055620;28;20177;-68
2023/12/22 04:52:44;;;;;;;3.70;1.37;;;6.60;99.90;;;;;;5055534;28;20173;-68
2023/12/22 04:55:09;;;;;;;1.13;1.03;;;6.60;99.90;;;;;;5055459;28;20185;-68
2023/12/22 04:57:35;;;;;;;3.73;1.60;;;6.60;99.90;;;;;;5055350;28;20198;-68
2023/12/22 05:00:00;;;;;;;2.93;1.30;;;6.60;99.90;;;;;;5055399;28;20173;-68
2023/12/22 05:02:26;;;;;;;4.03;1.33;;;6.70;99.90;;;;;;5055264;28;20228;-68
2023/12/22 05:04:51;;;;;;;4.80;1.30;;;6.60;99.90;;;;;;5055227;28;20260;-69
2023/12/22 05:07:17;;;;;;;5.43;1.20;;;6.60;99.90;;;;;;5054904;28;20201;-69
2023/12/22 05:09:42;;;;;;;2.07;1.20;;;6.60;99.90;;;;;;5055215;28;20249;-69
2023/12/22 05:12:08;;;;;;;3.13;1.20;;;6.80;99.90;;;;;;5055221;28;20627;-69
2023/12/22 05:14:33;;;;;;;6.27;1.57;;;6.80;99.90;;;;;;5054979;28;20204;-69
2023/12/22 05:16:59;;;;;;;8.70;2.30;;;6.90;99.90;;;;;;5054791;28;20184;-68
2023/12/22 05:19:24;;;;;;;4.57;2.20;;;6.80;99.90;;;;;;5055018;28;20584;-68
2023/12/22 05:21:52;;;;;;;4.33;2.20;;;6.80;99.90;;;;;;5054957;28;20559;-69
2023/12/22 05:24:18;;;;;;;6.50;2.20;;;6.80;99.90;;;;;;5055126;28;20172;-69
2023/12/22 05:26:43;;;;;;;8.23;2.10;;;6.90;99.90;;;;;;5054454;28;20550;-69
2023/12/22 05:29:09;;;;;;;4.37;1.63;;;6.90;99.90;;;;;;5055069;28;20170;-69
2023/12/22 05:31:34;;;;;;;11.60;3.00;;;7.00;99.90;;;;;;5054906;28;20260;-69
2023/12/22 05:34:00;;;;;;;7.80;2.20;;;7.10;99.90;;;;;;5054826;28;20173;-68
2023/12/22 05:36:25;;;;;;;6.37;2.50;;;7.10;99.90;;;;;;5054383;28;20220;-69
2023/12/22 05:38:51;;;;;;;5.03;2.60;;;7.00;99.90;;;;;;5054775;28;20197;-69
2023/12/22 05:41:16;;;;;;;4.57;1.83;;;7.00;99.90;;;;;;5054416;28;20169;-69
2023/12/22 05:43:42;;;;;;;4.37;2.03;;;7.00;99.90;;;;;;5054836;28;20185;-69
2023/12/22 05:46:09;;;;;;;3.47;2.00;;;7.00;99.90;;;;;;5054339;28;20208;-69
2023/12/22 05:48:35;;;;;;;5.23;2.80;;;7.00;99.90;;;;;;5054280;28;20308;-68
2023/12/22 05:51:03;;;;;;;5.40;1.90;;;7.00;99.90;;;;;;5054465;28;20969;-68
2023/12/22 05:53:28;;;;;;;6.63;2.80;;;7.00;99.90;;;;;;5054653;28;20170;-68
2023/12/22 05:55:54;;;;;;;5.20;1.73;;;7.10;99.90;;;;;;5054311;28;20450;-68
2023/12/22 05:58:19;;;;;;;4.40;1.50;;;7.20;99.90;;;;;;5054094;28;20173;-68
2023/12/22 06:00:45;;;;;;;11.50;1.60;;;7.30;99.90;;;;;;5054116;28;20177;-68
2023/12/22 06:03:10;;;;;;;5.03;2.10;;;7.30;99.90;;;;;;5054222;28;20174;-68
2023/12/22 06:05:36;;;;;;;5.63;2.40;;;7.30;99.90;;;;;;5054084;28;20279;-69
2023/12/22 06:08:01;;;;;;;2.83;1.67;;;7.30;99.90;;;;;;5053767;28;20518;-69
2023/12/22 06:10:27;;;;;;;7.53;2.00;;;7.30;99.90;;;;;;5054292;28;20209;-69
2023/12/22 06:12:52;;;;;;;4.93;1.60;;;7.30;99.90;;;;;;5054173;28;20628;-69
2023/12/22 06:15:18;;;;;;;5.30;1.87;;;7.30;99.90;;;;;;5054299;28;20205;-68
2023/12/22 06:17:43;;;;;;;10.50;2.30;;;7.40;99.90;;;;;;5053897;28;20184;-68
2023/12/22 06:20:09;;;;;;;12.20;2.80;;;7.40;99.90;;;;;;5053949;28;20763;-68
2023/12/22 06:22:35;;;;;;;9.87;3.70;;;7.40;99.90;;;;;;5053806;28;20540;-68
2023/12/22 06:25:02;;;;;;;7.63;2.50;;;7.50;99.90;;;;;;5053759;28;20854;-68
2023/12/22 06:27:28;;;;;;;4.37;1.90;;;7.50;99.90;;;;;;5053542;28;20591;-68
2023/12/22 06:29:55;;;;;;;6.17;2.30;;;7.50;99.90;;;;;;5053920;28;20412;-69
2023/12/22 06:32:21;;;;;;;12.27;2.53;;;7.60;99.90;;;;;;5053677;28;20531;-69
2023/12/22 06:34:46;;;;;;;2.97;1.90;;;7.60;99.90;;;;;;5053641;28;20447;-68
2023/12/22 06:37:12;;;;;;;6.77;2.57;;;7.60;99.90;;;;;;5053265;28;20169;-68
2023/12/22 06:39:38;;;;;;;3.47;1.90;;;7.60;99.90;;;;;;5053803;28;20746;-69
2023/12/22 06:42:05;;;;;;;5.77;2.07;;;7.60;99.90;;;;;;5053540;28;20666;-68
2023/12/22 06:44:31;;;;;;;4.60;1.90;;;7.60;99.90;;;;;;5053619;28;20194;-69
2023/12/22 06:46:57;;;;;;;11.80;3.93;;;7.60;99.90;;;;;;5052944;28;21018;-68
2023/12/22 06:49:22;;;;;;;2.97;2.13;;;7.60;99.90;;;;;;5053594;28;20823;-68
2023/12/22 06:51:48;;;;;;;4.03;1.83;;;7.60;99.90;;;;;;5053386;28;20668;-69
2023/12/22 06:54:13;;;;;;;7.93;2.30;;;7.70;99.90;;;;;;5052761;28;20172;-69
2023/12/22 06:56:39;;;;;;;7.27;2.07;;;7.60;99.90;;;;;;5052904;28;20216;-68
2023/12/22 06:59:06;;;;;;;5.50;2.27;;;7.60;99.90;;;;;;5053083;28;20172;-69
2023/12/22 07:01:33;;;;;;;7.13;2.03;;;7.70;99.90;;;;;;5053031;28;20478;-68
2023/12/22 07:04:00;;;;;;;8.00;1.87;;;7.60;99.90;;;;;;5053009;28;20481;-69
2023/12/22 07:06:28;;;;;;;9.93;1.60;;;7.50;99.90;;;;;;5052629;28;20463;-69
2023/12/22 07:09:12;;;;;;;6.13;3.03;;;7.30;99.90;;;;;;5053007;28;20515;-68
2023/12/22 07:11:41;;;;;;;4.10;1.67;;;7.20;99.90;;;;;;5053096;28;20949;-69
2023/12/22 07:14:07;;;;;;;4.20;2.07;;;7.10;99.90;;;;;;5052872;28;20501;-68
2023/12/22 07:16:34;;;;;;;7.10;1.90;;;7.00;99.90;;;;;;5052478;28;20501;-69
2023/12/22 07:18:59;;;;;;;3.90;1.67;;;7.00;99.90;;;;;;5052750;28;20601;-68
2023/12/22 07:21:26;;;;;;;6.17;1.90;;;7.10;99.90;;;;;;5052665;28;20444;-68
2023/12/22 07:23:51;;;;;;;5.23;1.67;;;7.10;99.90;;;;;;5052745;28;20166;-69
2023/12/22 07:26:17;;;;;;;4.17;2.33;;;7.10;99.90;;;;;;5052338;28;20455;-68
2023/12/22 07:28:42;;;;;;;4.80;2.00;;;7.10;99.90;;;;;;5052391;28;20227;-68
2023/12/22 07:31:08;;;;;;;7.63;2.17;;;7.10;99.90;;;;;;5052570;28;20180;-68
2023/12/22 07:33:33;;;;;;;7.70;2.13;;;7.20;99.90;;;;;;5052516;28;20264;-68
2023/12/22 07:35:59;;;;;;;6.37;2.10;;;7.20;99.90;;;;;;5052349;28;20240;-67
2023/12/22 07:38:24;;;;;;;13.17;2.80;;;7.20;99.90;;;;;;5052231;28;20177;-69
2023/12/22 07:40:50;;;;;;;7.43;1.87;;;7.20;99.90;;;;;;5052386;28;20173;-69
2023/12/22 07:43:16;;;;;;;14.60;2.70;;;7.20;99.90;;;;;;5052252;28;20257;-68
2023/12/22 07:45:41;;;;;;;4.73;2.30;;;7.10;99.90;;;;;;5052238;28;20291;-68
2023/12/22 07:48:07;;;;;;;9.63;2.30;;;7.00;99.90;;;;;;5052030;28;20476;-68
2023/12/22 07:50:33;;;;;;;6.13;1.47;;;6.90;99.90;;;;;;5052197;28;20170;-68
2023/12/22 07:52:58;;;;;;;7.37;2.70;;;6.80;99.90;;;;;;5052206;28;20523;-68
2023/12/22 07:55:24;;;;;;;3.87;1.63;;;6.80;99.90;;;;;;5052053;28;20443;-68
2023/12/22 07:57:50;;;;;;;4.67;1.90;;;6.70;99.90;;;;;;5052088;28;20235;-69
2023/12/22 08:00:16;;;;;;;6.83;1.93;;;6.60;99.90;;;;;;5052165;28;20685;-68
2023/12/22 08:02:42;;;;;;;7.27;2.40;;;6.60;99.90;;;;;;5052023;28;20416;-68
2023/12/22 08:05:08;;;;;;;6.80;2.50;;;6.50;99.90;;;;;;5050808;28;20497;-68
2023/12/22 08:07:33;;;;;;;4.97;2.40;;;6.50;99.90;;;;;;5051365;28;20632;-68
2023/12/22 08:09:59;;;;;;;6.17;2.90;;;6.50;99.90;;;;;;5051923;28;20197;-68
2023/12/22 08:12:24;;;;;;;6.10;2.20;;;6.50;99.90;;;;;;5051968;28;20227;-68
2023/12/22 08:14:50;;;;;;;10.30;4.03;;;6.50;99.90;;;;;;5051288;28;20267;-70
2023/12/22 08:17:15;;;;;;;11.33;2.37;;;6.50;99.90;;;;;;5051741;28;20185;-70
2023/12/22 08:19:44;;;;;;;11.93;2.27;;;6.70;99.90;;;;;;5052058;28;20253;-70
2023/12/22 08:22:10;;;;;;;7.23;3.70;;;6.80;99.90;;;;;;5051797;28;20174;-71
2023/12/22 08:24:36;;;;;;;4.87;1.90;;;6.80;99.90;;;;;;5051750;28;20448;-71
2023/12/22 08:27:01;;;;;;;6.00;1.90;;;6.80;99.90;;;;;;5051561;28;20498;-71
2023/12/22 08:29:27;;;;;;;8.73;3.13;;;6.80;99.90;;;;;;5050129;28;20212;-69
2023/12/22 08:31:53;;;;;;;9.47;2.77;;;6.80;99.90;;;;;;5052749;28;20183;-68
2023/12/22 08:34:19;;;;;;;8.97;3.90;;;6.80;99.90;;;;;;5051540;28;20548;-68
2023/12/22 08:36:44;;;;;;;8.43;2.57;;;6.80;99.90;;;;;;5051438;28;20462;-68
2023/12/22 08:39:10;;;;;;;8.77;2.87;;;6.80;99.90;;;;;;5051617;28;20177;-68
2023/12/22 08:41:37;;;;;;;8.43;2.80;;;6.80;99.90;;;;;;5051201;28;20178;-68
2023/12/22 08:44:05;;;;;;;5.30;3.27;;;6.80;99.90;;;;;;5051653;28;20219;-68
2023/12/22 08:46:30;;;;;;;4.83;2.13;;;6.80;99.90;;;;;;5051281;28;20460;-69
2023/12/22 08:48:57;;;;;;;8.47;1.80;;;6.90;99.90;;;;;;5051698;28;21232;-69
2023/12/22 08:51:22;;;;;;;10.73;2.60;;;6.90;99.90;;;;;;5051575;28;20182;-68
2023/12/22 08:53:50;;;;;;;6.37;2.03;;;6.90;99.90;;;;;;5051494;28;20506;-69
2023/12/22 08:56:17;;;;;;;3.33;1.90;;;6.90;99.90;;;;;;5051403;28;20196;-68
2023/12/22 08:58:42;;;;;;;6.17;2.60;;;6.90;99.90;;;;;;5051527;28;20924;-68
2023/12/22 09:01:14;;;;;;;11.77;2.57;;;6.90;99.90;;;;;;5051454;28;20420;-68
2023/12/22 09:03:43;;;;;;;9.87;2.90;;;6.90;99.90;;;;;;5051598;28;20589;-68
2023/12/22 09:06:09;;;;;;;10.80;1.77;;;6.90;99.90;;;;;;5051156;28;20512;-69
2023/12/22 09:08:34;;;;;;;10.90;2.40;;;6.90;99.90;;;;;;5051197;28;20447;-69
2023/12/22 09:11:00;;;;;;;11.83;2.80;;;6.90;99.90;;;;;;5051448;28;20319;-69
2023/12/22 09:13:25;;;;;;;6.57;2.80;;;6.90;99.90;;;;;;5051668;28;20420;-68
2023/12/22 09:15:51;;;;;;;9.60;4.70;;;7.00;99.90;;;;;;5051648;28;20300;-67
2023/12/22 09:18:17;;;;;;;10.80;2.80;;;7.00;99.90;;;;;;5054825;28;20787;-68
2023/12/22 09:20:42;;;;;;;11.43;2.70;;;7.00;99.90;;;;;;5055008;28;20181;-68
2023/12/22 09:23:09;;;;;;;11.70;3.03;;;7.00;99.90;;;;;;5054973;28;20208;-68
2023/12/22 09:25:35;;;;;;;5.83;2.40;;;7.20;99.90;;;;;;5054783;28;20197;-69
2023/12/22 09:28:01;;;;;;;13.03;3.57;;;7.20;99.90;;;;;;5054596;28;20420;-68
2023/12/22 09:30:27;;;;;;;15.30;2.77;;;7.20;99.90;;;;;;5054392;28;20174;-68
2023/12/22 09:32:52;;;;;;;5.90;2.37;;;7.20;99.90;;;;;;5054790;28;20845;-67
2023/12/22 09:35:18;;;;;;;13.03;2.83;;;7.30;99.90;;;;;;5051312;28;20204;-67
2023/12/22 09:37:43;;;;;;;7.23;2.60;;;7.40;99.90;;;;;;5053898;28;20564;-67
2023/12/22 09:40:10;;;;;;;11.57;4.30;;;7.40;99.90;;;;;;5054416;28;20166;-67
2023/12/22 09:42:38;;;;;;;12.17;3.03;;;7.50;99.90;;;;;;5054652;28;20673;-67
2023/12/22 09:45:05;;;;;;;8.60;3.60;;;7.60;99.90;;;;;;5054410;28;20490;-69
2023/12/22 09:47:34;;;;;;;7.60;3.43;;;7.60;99.90;;;;;;5054125;28;20821;-66
2023/12/22 09:50:01;;;;;;;15.43;3.27;;;7.70;99.90;;;;;;5054322;28;20419;-69
2023/12/22 09:52:28;;;;;;;9.57;3.43;;;7.60;99.90;;;;;;5054205;28;20428;-68
2023/12/22 09:54:55;;;;;;;9.83;3.23;;;7.70;99.90;;;;;;5054299;28;20444;-68
2023/12/22 09:57:23;;;;;;;9.53;3.73;;;7.70;99.90;;;;;;5054000;28;20415;-68
2023/12/22 09:59:52;;;;;;;7.63;2.80;;;7.80;99.90;;;;;;5036314;28;20455;-68
2023/12/22 10:02:17;;;;;;;9.00;3.00;;;7.70;99.90;;;;;;5054304;28;20420;-68
2023/12/22 10:04:43;;;;;;;14.40;3.67;;;7.80;99.90;;;;;;5053877;28;20427;-69
2023/12/22 10:07:13;;;;;;;12.27;3.10;;;7.80;99.90;;;;;;5053775;28;20205;-69
2023/12/22 10:09:40;;;;;;;13.43;3.60;;;7.80;99.90;;;;;;5036627;28;20169;-69
2023/12/22 10:12:09;;;;;;;10.53;3.43;;;7.80;99.90;;;;;;5054098;28;20784;-68
2023/12/22 10:14:37;;;;;;;11.50;3.30;;;7.80;99.90;;;;;;5052863;28;20772;-69
2023/12/22 10:17:04;;;;;;;11.93;3.30;;;7.90;99.90;;;;;;5053719;28;20428;-68
2023/12/22 10:19:30;;;;;;;13.43;3.27;;;7.90;99.90;;;;;;5053804;28;20781;-69
2023/12/22 10:21:56;;;;;;;13.10;3.53;;;8.00;99.90;;;;;;5053972;28;20412;-68
2023/12/22 10:24:47;;;;;;;10.33;2.30;;;8.00;99.90;;;;;;5053759;28;20181;-69
2023/12/22 10:27:13;;;;;;;11.37;3.70;;;8.00;99.90;;;;;;5053027;28;20483;-68
2023/12/22 10:29:40;;;;;;;7.40;3.07;;;8.00;99.90;;;;;;5060562;28;20427;-69
2023/12/22 10:32:07;;;;;;;7.90;2.70;;;8.10;99.90;;;;;;5056832;28;20442;-69
2023/12/22 10:34:33;;;;;;;11.27;2.97;;;8.10;99.90;;;;;;5053327;28;20416;-68
2023/12/22 10:37:02;;;;;;;9.20;3.50;;;8.00;99.90;;;;;;5053210;28;20435;-69
2023/12/22 10:39:29;;;;;;;7.13;3.63;;;8.00;99.90;;;;;;5053226;28;20428;-68
2023/12/22 10:41:58;;;;;;;11.90;2.97;;;7.90;99.90;;;;;;5053399;28;21157;-69
2023/12/22 10:44:28;;;;;;;15.33;3.17;;;7.80;99.90;;;;;;5053269;28;20416;-69
2023/12/22 10:46:54;;;;;;;9.33;2.73;;;7.80;99.90;;;;;;5035160;28;20513;-68
2023/12/22 10:49:21;;;;;;;9.90;3.27;;;7.70;99.90;;;;;;5053322;28;20507;-65
2023/12/22 10:51:47;;;;;;;8.40;2.60;;;7.70;99.90;;;;;;5053297;28;20423;-70
2023/12/22 10:54:13;;;;;;;5.90;2.10;;;7.70;99.90;;;;;;5053132;28;20416;-70
2023/12/22 10:56:41;;;;;;;6.10;2.60;;;7.70;99.90;;;;;;5052721;28;20200;-69
2023/12/22 10:59:08;;;;;;;11.30;2.20;;;7.70;99.90;;;;;;5053735;28;20165;-70
2023/12/22 11:01:38;;;;;;;5.73;2.77;;;7.70;99.90;;;;;;5053256;28;20465;-70
2023/12/22 11:04:07;;;;;;;5.20;1.60;;;7.70;99.90;;;;;;5053082;28;20977;-71
2023/12/22 11:06:37;;;;;;;4.10;1.87;;;7.70;99.90;;;;;;5050318;28;20482;-69
2023/12/22 11:09:11;;;;;;;6.27;2.43;;;7.70;99.90;;;;;;5053350;28;21079;-70
2023/12/22 11:11:38;;;;;;;3.70;1.47;;;7.70;99.90;;;;;;5053173;28;20496;-70
2023/12/22 11:14:06;;;;;;;10.33;2.40;;;7.60;99.90;;;;;;5034957;28;20435;-70
2023/12/22 11:16:33;;;;;;;6.63;1.40;;;7.60;99.90;;;;;;5052478;28;20451;-69
2023/12/22 11:19:00;;;;;;;1.97;1.77;;;7.60;99.90;;;;;;5052664;28;20444;-70
2023/12/22 11:21:26;;;;;;;6.07;1.93;;;7.50;99.90;;;;;;5052744;28;20427;-68
2023/12/22 11:23:53;;;;;;;9.30;1.47;;;7.50;99.90;;;;;;5052501;28;20424;-68
2023/12/22 11:26:21;;;;;;;3.87;2.30;;;7.40;99.90;;;;;;5052626;28;20675;-68
2023/12/22 11:28:48;;;;;;;4.20;1.70;;;7.40;99.90;;;;;;5052470;28;20428;-68
2023/12/22 11:31:15;;;;;;;3.40;2.63;;;7.30;99.90;;;;;;5050972;28;20542;-69
2023/12/22 11:33:45;;;;;;;2.70;1.70;;;7.30;99.90;;;;;;5033161;28;20444;-69
2023/12/22 11:36:12;;;;;;;1.63;1.53;;;7.30;99.90;;;;;;5032547;28;20542;-69
2023/12/22 11:38:41;;;;;;;7.80;1.60;;;7.30;99.90;;;;;;5032109;28;20508;-69
2023/12/22 11:41:13;;;;;;;5.40;1.40;;;7.20;99.90;;;;;;5032491;28;20425;-69
2023/12/22 11:43:40;;;;;;;4.50;2.23;;;7.20;99.90;;;;;;5032490;28;20786;-68
2023/12/22 11:46:06;;;;;;;2.77;1.40;;;7.20;99.90;;;;;;5032265;28;20515;-69
2023/12/22 11:48:32;;;;;;;7.10;2.20;;;7.10;99.90;;;;;;5032077;28;20980;-69
2023/12/22 11:50:58;;;;;;;3.30;1.50;;;7.10;99.90;;;;;;5032090;28;20180;-68
2023/12/22 11:53:25;;;;;;;3.33;1.50;;;7.10;99.90;;;;;;5032135;28;20511;-69
2023/12/22 11:56:08;;;;;;;4.00;1.90;;;7.10;99.90;;;;;;5032186;28;20198;-70
2023/12/22 11:58:54;;;;;;;7.20;2.87;;;7.00;99.90;;;;;;5031955;28;20424;-69
2023/12/22 12:01:23;;;;;;;3.00;2.37;;;7.00;99.90;;;;;;5032257;28;20939;-69
2023/12/22 12:03:53;;;;;;;4.50;1.50;;;7.00;99.90;;;;;;5032248;28;20475;-68
2023/12/22 12:06:30;;;;;;;5.43;2.47;;;7.00;99.90;;;;;;5047556;28;20456;-69
2023/12/22 12:08:57;;;;;;;2.30;1.63;;;7.00;99.90;;;;;;5050768;28;20535;-70
2023/12/22 12:11:23;;;;;;;5.37;2.30;;;7.00;99.90;;;;;;5051773;28;20495;-70
2023/12/22 12:13:50;;;;;;;2.43;2.23;;;7.00;99.90;;;;;;5051673;28;20420;-69
2023/12/22 12:16:21;;;;;;;3.60;1.53;;;7.00;99.90;;;;;;5066659;22;20914;-67
2023/12/22 12:18:47;;;;;;;6.43;2.00;;;7.00;99.90;;;;;;5051243;28;20486;-68
2023/12/22 12:21:13;;;;;;;3.30;1.60;;;7.00;99.90;;;;;;5051701;28;20416;-74
2023/12/22 12:23:40;;;;;;;3.43;1.50;;;7.00;99.90;;;;;;5051750;28;20543;-72
2023/12/22 12:26:07;;;;;;;2.70;1.80;;;7.00;99.90;;;;;;5051805;28;20212;-73
2023/12/22 12:28:35;;;;;;;1.40;1.17;;;7.00;99.90;;;;;;5049904;28;20454;-71
2023/12/22 12:31:04;;;;;;;3.47;2.30;;;7.00;99.90;;;;;;5068853;28;20442;-72
2023/12/22 12:33:30;;;;;;;4.10;1.93;;;7.00;99.90;;;;;;5071988;28;20515;-71
2023/12/22 12:35:58;;;;;;;2.00;1.27;;;7.00;99.90;;;;;;5071326;28;20517;-71
2023/12/22 12:38:47;;;;;;;5.97;2.10;;;7.00;99.90;;;;;;5071446;28;20992;-73
2023/12/22 12:41:14;;;;;;;6.37;1.73;;;7.00;99.90;;;;;;5041402;28;20421;-66
2023/12/22 12:43:43;;;;;;;1.63;1.47;;;7.00;99.90;;;;;;5040399;28;20940;-71
2023/12/22 12:46:09;;;;;;;2.90;1.53;;;7.00;99.90;;;;;;5049185;28;20463;-73
2023/12/22 12:48:35;;;;;;;2.40;1.23;;;7.00;99.90;;;;;;5051033;28;20436;-73
2023/12/22 12:51:07;;;;;;;3.53;1.30;;;7.00;99.90;;;;;;5052301;28;20986;-71
2023/12/22 12:53:33;;;;;;;1.70;0.90;;;7.00;99.90;;;;;;5055637;28;20172;-74